sensor_id;sensor_type;location;lat;lon;timestamp;pressure;altitude;pressure_sealevel;temperature;humidity
77333;BME280;66408;51.326;12.070;2023-01-10T00:01:23;100019.69;;;5.76;74.68
77333;BME280;66408;51.326;12.070;2023-01-10T00:03:49;100027.22;;;5.80;74.43
77333;BME280;66408;51.326;12.070;2023-01-10T00:06:16;100024.00;;;5.72;74.63
77333;BME280;66408;51.326;12.070;2023-01-10T00:08:42;100025.91;;;5.72;74.78
77333;BME280;66408;51.326;12.070;2023-01-10T00:11:08;100020.50;;;5.72;74.53
77333;BME280;66408;51.326;12.070;2023-01-10T00:13:54;100025.88;;;5.77;74.64
77333;BME280;66408;51.326;12.070;2023-01-10T00:16:22;100029.69;;;5.71;74.29
77333;BME280;66408;51.326;12.070;2023-01-10T00:18:49;100030.22;;;5.73;74.60
77333;BME280;66408;51.326;12.070;2023-01-10T00:21:15;100034.84;;;5.67;74.91
77333;BME280;66408;51.326;12.070;2023-01-10T00:23:42;100040.75;;;5.69;74.97
77333;BME280;66408;51.326;12.070;2023-01-10T00:26:10;100045.31;;;5.74;74.61
77333;BME280;66408;51.326;12.070;2023-01-10T00:28:36;100052.31;;;5.75;74.82
77333;BME280;66408;51.326;12.070;2023-01-10T00:31:05;100049.06;;;5.78;75.05
77333;BME280;66408;51.326;12.070;2023-01-10T00:33:33;100049.31;;;5.82;75.00
77333;BME280;66408;51.326;12.070;2023-01-10T00:36:01;100052.59;;;5.78;74.95
77333;BME280;66408;51.326;12.070;2023-01-10T00:38:27;100058.75;;;5.84;75.02
77333;BME280;66408;51.326;12.070;2023-01-10T00:40:56;100060.34;;;5.85;75.02
77333;BME280;66408;51.326;12.070;2023-01-10T00:43:22;100080.06;;;5.86;74.90
77333;BME280;66408;51.326;12.070;2023-01-10T00:46:08;100070.88;;;5.87;75.09
77333;BME280;66408;51.326;12.070;2023-01-10T00:48:34;100086.53;;;5.90;74.95
77333;BME280;66408;51.326;12.070;2023-01-10T00:51:02;100081.97;;;5.90;75.02
77333;BME280;66408;51.326;12.070;2023-01-10T00:53:28;100095.72;;;5.89;74.73
77333;BME280;66408;51.326;12.070;2023-01-10T00:55:55;100105.44;;;5.90;74.82
77333;BME280;66408;51.326;12.070;2023-01-10T00:58:22;100103.28;;;5.92;74.92
77333;BME280;66408;51.326;12.070;2023-01-10T01:00:48;100107.03;;;5.91;74.56
77333;BME280;66408;51.326;12.070;2023-01-10T01:03:17;100101.38;;;5.92;74.15
77333;BME280;66408;51.326;12.070;2023-01-10T01:05:45;100104.06;;;5.87;74.52
77333;BME280;66408;51.326;12.070;2023-01-10T01:08:13;100115.66;;;5.83;74.38
77333;BME280;66408;51.326;12.070;2023-01-10T01:10:40;100120.56;;;5.81;74.48
77333;BME280;66408;51.326;12.070;2023-01-10T01:13:18;100119.75;;;5.80;74.97
77333;BME280;66408;51.326;12.070;2023-01-10T01:15:45;100122.72;;;5.78;74.69
77333;BME280;66408;51.326;12.070;2023-01-10T01:18:16;100121.09;;;5.77;74.86
77333;BME280;66408;51.326;12.070;2023-01-10T01:20:43;100134.06;;;5.75;74.72
77333;BME280;66408;51.326;12.070;2023-01-10T01:23:11;100131.38;;;5.75;74.54
77333;BME280;66408;51.326;12.070;2023-01-10T01:25:38;100138.13;;;5.73;74.60
77333;BME280;66408;51.326;12.070;2023-01-10T01:28:04;100134.59;;;5.72;74.62
77333;BME280;66408;51.326;12.070;2023-01-10T01:30:31;100141.09;;;5.71;75.05
77333;BME280;66408;51.326;12.070;2023-01-10T01:32:57;100150.78;;;5.72;74.85
77333;BME280;66408;51.326;12.070;2023-01-10T01:35:24;100148.41;;;5.66;74.97
77333;BME280;66408;51.326;12.070;2023-01-10T01:37:51;100147.59;;;5.65;75.18
77333;BME280;66408;51.326;12.070;2023-01-10T01:40:19;100151.63;;;5.68;75.09
77333;BME280;66408;51.326;12.070;2023-01-10T01:42:47;100169.16;;;5.65;75.06
77333;BME280;66408;51.326;12.070;2023-01-10T01:47:47;100169.44;;;5.64;75.03
77333;BME280;66408;51.326;12.070;2023-01-10T01:50:20;100175.91;;;5.68;75.10
77333;BME280;66408;51.326;12.070;2023-01-10T01:52:50;100188.31;;;5.64;75.42
77333;BME280;66408;51.326;12.070;2023-01-10T01:55:18;100200.47;;;5.66;75.59
77333;BME280;66408;51.326;12.070;2023-01-10T01:57:45;100200.72;;;5.65;75.81
77333;BME280;66408;51.326;12.070;2023-01-10T02:00:14;100203.41;;;5.70;76.00
77333;BME280;66408;51.326;12.070;2023-01-10T02:02:45;100207.44;;;5.72;75.68
77333;BME280;66408;51.326;12.070;2023-01-10T02:05:29;100213.91;;;5.76;75.82
77333;BME280;66408;51.326;12.070;2023-01-10T02:07:58;100202.28;;;5.81;75.54
77333;BME280;66408;51.326;12.070;2023-01-10T02:10:44;100205.78;;;5.82;75.49
77333;BME280;66408;51.326;12.070;2023-01-10T02:13:15;100215.25;;;5.79;75.46
77333;BME280;66408;51.326;12.070;2023-01-10T02:15:45;100213.91;;;5.76;75.39
77333;BME280;66408;51.326;12.070;2023-01-10T02:18:12;100213.38;;;5.80;75.26
77333;BME280;66408;51.326;12.070;2023-01-10T02:29:12;100228.78;;;5.64;75.09
77333;BME280;66408;51.326;12.070;2023-01-10T02:34:37;100237.72;;;5.54;75.08
77333;BME280;66408;51.326;12.070;2023-01-10T02:45:03;100247.41;;;5.50;75.42
77333;BME280;66408;51.326;12.070;2023-01-10T02:47:40;100252.53;;;5.52;75.70
77333;BME280;66408;51.326;12.070;2023-01-10T02:53:00;100257.94;;;5.52;75.42
77333;BME280;66408;51.326;12.070;2023-01-10T03:01:05;100257.94;;;5.41;75.60
77333;BME280;66408;51.326;12.070;2023-01-10T03:03:42;100260.91;;;5.40;75.70
77333;BME280;66408;51.326;12.070;2023-01-10T03:09:02;100273.31;;;5.41;75.52
77333;BME280;66408;51.326;12.070;2023-01-10T03:11:32;100278.44;;;5.37;75.92
77333;BME280;66408;51.326;12.070;2023-01-10T03:14:21;100277.63;;;5.37;75.85
77333;BME280;66408;51.326;12.070;2023-01-10T03:16:57;100288.13;;;5.38;75.33
77333;BME280;66408;51.326;12.070;2023-01-10T03:19:29;100286.00;;;5.30;75.87
77333;BME280;66408;51.326;12.070;2023-01-10T03:21:58;100294.31;;;5.34;75.68
77333;BME280;66408;51.326;12.070;2023-01-10T03:24:41;100304.03;;;5.35;75.80
77333;BME280;66408;51.326;12.070;2023-01-10T03:27:26;100313.22;;;5.39;75.66
77333;BME280;66408;51.326;12.070;2023-01-10T03:30:14;100318.59;;;5.39;75.93
77333;BME280;66408;51.326;12.070;2023-01-10T03:32:43;100322.09;;;5.34;76.22
77333;BME280;66408;51.326;12.070;2023-01-10T03:35:11;100315.88;;;5.44;76.07
77333;BME280;66408;51.326;12.070;2023-01-10T03:37:43;100322.38;;;5.48;75.93
77333;BME280;66408;51.326;12.070;2023-01-10T03:40:42;100329.13;;;5.51;75.97
77333;BME280;66408;51.326;12.070;2023-01-10T03:43:31;100342.84;;;5.59;75.73
77333;BME280;66408;51.326;12.070;2023-01-10T03:46:29;100361.75;;;5.54;75.93
77333;BME280;66408;51.326;12.070;2023-01-10T03:48:59;100351.22;;;5.58;75.43
77333;BME280;66408;51.326;12.070;2023-01-10T03:51:29;100369.59;;;5.56;75.55
77333;BME280;66408;51.326;12.070;2023-01-10T03:53:58;100368.22;;;5.58;75.85
77333;BME280;66408;51.326;12.070;2023-01-10T03:56:25;100370.09;;;5.63;75.63
77333;BME280;66408;51.326;12.070;2023-01-10T03:58:52;100376.03;;;5.60;76.04
77333;BME280;66408;51.326;12.070;2023-01-10T04:01:19;100383.34;;;5.64;75.39
77333;BME280;66408;51.326;12.070;2023-01-10T04:03:45;100381.44;;;5.65;75.53
77333;BME280;66408;51.326;12.070;2023-01-10T04:06:12;100399.50;;;5.64;75.69
77333;BME280;66408;51.326;12.070;2023-01-10T04:08:38;100403.03;;;5.65;75.83
77333;BME280;66408;51.326;12.070;2023-01-10T04:11:05;100399.78;;;5.68;75.43
77333;BME280;66408;51.326;12.070;2023-01-10T04:13:31;100407.88;;;5.68;76.05
77333;BME280;66408;51.326;12.070;2023-01-10T04:15:59;100413.81;;;5.75;75.88
77333;BME280;66408;51.326;12.070;2023-01-10T04:18:25;100403.56;;;5.77;75.92
77333;BME280;66408;51.326;12.070;2023-01-10T04:20:52;100413.81;;;5.75;75.80
77333;BME280;66408;51.326;12.070;2023-01-10T04:23:18;100410.59;;;5.78;76.19
77333;BME280;66408;51.326;12.070;2023-01-10T04:25:48;100411.41;;;5.89;75.75
77333;BME280;66408;51.326;12.070;2023-01-10T04:28:14;100417.59;;;5.94;75.61
77333;BME280;66408;51.326;12.070;2023-01-10T04:30:41;100421.66;;;5.97;75.70
77333;BME280;66408;51.326;12.070;2023-01-10T04:33:07;100432.47;;;5.92;75.76
77333;BME280;66408;51.326;12.070;2023-01-10T04:35:35;100447.84;;;5.96;75.64
77333;BME280;66408;51.326;12.070;2023-01-10T04:38:02;100449.19;;;5.89;76.12
77333;BME280;66408;51.326;12.070;2023-01-10T04:40:28;100460.25;;;5.92;76.08
77333;BME280;66408;51.326;12.070;2023-01-10T04:42:54;100462.69;;;5.99;75.96
77333;BME280;66408;51.326;12.070;2023-01-10T04:45:21;100474.84;;;6.01;75.98
77333;BME280;66408;51.326;12.070;2023-01-10T04:47:49;100476.16;;;5.99;75.83
77333;BME280;66408;51.326;12.070;2023-01-10T04:50:16;100471.56;;;5.94;75.71
77333;BME280;66408;51.326;12.070;2023-01-10T04:52:43;100484.81;;;6.01;75.99
77333;BME280;66408;51.326;12.070;2023-01-10T04:55:09;100486.69;;;6.00;75.55
77333;BME280;66408;51.326;12.070;2023-01-10T04:57:36;100491.03;;;5.91;76.05
77333;BME280;66408;51.326;12.070;2023-01-10T05:00:02;100499.91;;;5.97;76.11
77333;BME280;66408;51.326;12.070;2023-01-10T05:02:29;100496.41;;;6.01;75.89
77333;BME280;66408;51.326;12.070;2023-01-10T05:04:56;100502.91;;;6.05;75.75
77333;BME280;66408;51.326;12.070;2023-01-10T05:07:22;100506.69;;;6.04;75.58
77333;BME280;66408;51.326;12.070;2023-01-10T05:09:49;100508.00;;;6.07;75.87
77333;BME280;66408;51.326;12.070;2023-01-10T05:12:15;100516.13;;;6.07;75.58
77333;BME280;66408;51.326;12.070;2023-01-10T05:14:41;100524.50;;;6.05;75.52
77333;BME280;66408;51.326;12.070;2023-01-10T05:17:08;100525.84;;;6.03;76.12
77333;BME280;66408;51.326;12.070;2023-01-10T05:19:34;100546.34;;;6.09;76.19
77333;BME280;66408;51.326;12.070;2023-01-10T05:22:01;100555.53;;;6.13;75.95
77333;BME280;66408;51.326;12.070;2023-01-10T05:24:27;100550.16;;;6.13;76.13
77333;BME280;66408;51.326;12.070;2023-01-10T05:26:54;100550.41;;;6.11;76.33
77333;BME280;66408;51.326;12.070;2023-01-10T05:29:20;100558.78;;;6.10;76.59
77333;BME280;66408;51.326;12.070;2023-01-10T05:31:49;100557.69;;;6.06;76.74
77333;BME280;66408;51.326;12.070;2023-01-10T05:34:16;100565.78;;;6.06;76.78
77333;BME280;66408;51.326;12.070;2023-01-10T05:36:43;100567.13;;;6.08;76.73
77333;BME280;66408;51.326;12.070;2023-01-10T05:39:09;100577.13;;;6.08;76.36
77333;BME280;66408;51.326;12.070;2023-01-10T05:41:35;100579.56;;;6.09;76.49
77333;BME280;66408;51.326;12.070;2023-01-10T05:44:02;100584.94;;;6.09;76.48
77333;BME280;66408;51.326;12.070;2023-01-10T05:46:29;100585.75;;;6.10;76.41
77333;BME280;66408;51.326;12.070;2023-01-10T05:48:55;100588.47;;;6.10;76.12
77333;BME280;66408;51.326;12.070;2023-01-10T05:51:22;100597.38;;;6.10;76.15
77333;BME280;66408;51.326;12.070;2023-01-10T05:53:48;100602.25;;;6.13;75.73
77333;BME280;66408;51.326;12.070;2023-01-10T05:56:18;100602.53;;;6.17;75.87
77333;BME280;66408;51.326;12.070;2023-01-10T05:58:44;100603.59;;;6.21;75.55
77333;BME280;66408;51.326;12.070;2023-01-10T06:01:15;100609.81;;;6.22;75.36
77333;BME280;66408;51.326;12.070;2023-01-10T06:03:41;100609.25;;;6.20;75.71
77333;BME280;66408;51.326;12.070;2023-01-10T06:06:08;100613.03;;;6.19;75.58
77333;BME280;66408;51.326;12.070;2023-01-10T06:08:35;100620.34;;;6.18;75.79
77333;BME280;66408;51.326;12.070;2023-01-10T06:11:06;100620.88;;;6.20;75.56
77333;BME280;66408;51.326;12.070;2023-01-10T06:13:33;100630.34;;;6.18;75.41
77333;BME280;66408;51.326;12.070;2023-01-10T06:16:00;100640.03;;;6.13;75.39
77333;BME280;66408;51.326;12.070;2023-01-10T06:18:26;100653.28;;;6.15;74.96
77333;BME280;66408;51.326;12.070;2023-01-10T06:20:53;100651.38;;;6.10;75.18
77333;BME280;66408;51.326;12.070;2023-01-10T06:23:19;100658.13;;;6.13;75.25
77333;BME280;66408;51.326;12.070;2023-01-10T06:25:46;100658.94;;;6.13;74.88
77333;BME280;66408;51.326;12.070;2023-01-10T06:28:13;100663.78;;;6.11;75.58
77333;BME280;66408;51.326;12.070;2023-01-10T06:30:40;100669.47;;;6.20;75.31
77333;BME280;66408;51.326;12.070;2023-01-10T06:33:09;100662.44;;;6.19;75.09
77333;BME280;66408;51.326;12.070;2023-01-10T06:35:36;100676.75;;;6.20;75.00
77333;BME280;66408;51.326;12.070;2023-01-10T06:38:03;100680.81;;;6.22;75.00
77333;BME280;66408;51.326;12.070;2023-01-10T06:40:29;100687.28;;;6.21;75.01
77333;BME280;66408;51.326;12.070;2023-01-10T06:42:56;100693.78;;;6.20;75.47
77333;BME280;66408;51.326;12.070;2023-01-10T06:45:22;100695.44;;;6.26;74.49
77333;BME280;66408;51.326;12.070;2023-01-10T06:47:49;100700.53;;;6.23;74.59
77333;BME280;66408;51.326;12.070;2023-01-10T06:50:16;100707.56;;;6.24;74.68
77333;BME280;66408;51.326;12.070;2023-01-10T06:52:42;100712.69;;;6.25;75.20
77333;BME280;66408;51.326;12.070;2023-01-10T06:55:09;100713.22;;;6.22;74.53
77333;BME280;66408;51.326;12.070;2023-01-10T06:57:35;100717.56;;;6.28;74.63
77333;BME280;66408;51.326;12.070;2023-01-10T07:00:05;100731.63;;;6.30;74.74
77333;BME280;66408;51.326;12.070;2023-01-10T07:02:32;100743.22;;;6.31;74.99
77333;BME280;66408;51.326;12.070;2023-01-10T07:04:59;100743.50;;;6.29;74.60
77333;BME280;66408;51.326;12.070;2023-01-10T07:07:25;100756.72;;;6.26;75.06
77333;BME280;66408;51.326;12.070;2023-01-10T07:09:52;100755.13;;;6.30;75.13
77333;BME280;66408;51.326;12.070;2023-01-10T07:12:18;100772.13;;;6.30;75.35
77333;BME280;66408;51.326;12.070;2023-01-10T07:14:45;100768.84;;;6.23;75.88
77333;BME280;66408;51.326;12.070;2023-01-10T07:17:11;100764.00;;;6.25;75.50
77333;BME280;66408;51.326;12.070;2023-01-10T07:19:38;100780.19;;;6.25;75.87
77333;BME280;66408;51.326;12.070;2023-01-10T07:22:04;100785.59;;;6.25;75.80
77333;BME280;66408;51.326;12.070;2023-01-10T07:24:31;100787.78;;;6.28;76.08
77333;BME280;66408;51.326;12.070;2023-01-10T07:26:57;100793.44;;;6.32;75.73
77333;BME280;66408;51.326;12.070;2023-01-10T07:29:24;100802.59;;;6.21;75.51
77333;BME280;66408;51.326;12.070;2023-01-10T07:31:50;100807.16;;;6.20;75.74
77333;BME280;66408;51.326;12.070;2023-01-10T07:34:17;100807.47;;;6.24;75.70
77333;BME280;66408;51.326;12.070;2023-01-10T07:36:43;100812.09;;;6.28;75.45
77333;BME280;66408;51.326;12.070;2023-01-10T07:39:10;100825.31;;;6.30;75.33
77333;BME280;66408;51.326;12.070;2023-01-10T07:41:37;100822.06;;;6.33;75.27
77333;BME280;66408;51.326;12.070;2023-01-10T07:44:04;100831.81;;;6.29;75.35
77333;BME280;66408;51.326;12.070;2023-01-10T07:46:30;100833.97;;;6.32;75.02
77333;BME280;66408;51.326;12.070;2023-01-10T07:48:57;100836.69;;;6.37;74.92
77333;BME280;66408;51.326;12.070;2023-01-10T07:51:24;100856.16;;;6.39;74.95
77333;BME280;66408;51.326;12.070;2023-01-10T07:53:50;100841.56;;;6.40;74.61
77333;BME280;66408;51.326;12.070;2023-01-10T07:56:17;100843.19;;;6.41;74.43
77333;BME280;66408;51.326;12.070;2023-01-10T07:58:43;100850.19;;;6.37;74.06
77333;BME280;66408;51.326;12.070;2023-01-10T08:01:11;100845.34;;;6.39;73.58
77333;BME280;66408;51.326;12.070;2023-01-10T08:03:38;100860.13;;;6.26;73.93
77333;BME280;66408;51.326;12.070;2023-01-10T08:06:07;100857.72;;;6.30;74.48
77333;BME280;66408;51.326;12.070;2023-01-10T08:08:36;100861.81;;;6.37;73.83
77333;BME280;66408;51.326;12.070;2023-01-10T08:11:03;100868.81;;;6.33;74.02
77333;BME280;66408;51.326;12.070;2023-01-10T08:13:30;100871.53;;;6.38;74.23
77333;BME280;66408;51.326;12.070;2023-01-10T08:15:57;100877.19;;;6.37;74.04
77333;BME280;66408;51.326;12.070;2023-01-10T08:18:24;100876.66;;;6.35;73.19
77333;BME280;66408;51.326;12.070;2023-01-10T08:20:52;100873.66;;;6.31;73.79
77333;BME280;66408;51.326;12.070;2023-01-10T08:23:19;100879.59;;;6.33;73.68
77333;BME280;66408;51.326;12.070;2023-01-10T08:25:47;100890.16;;;6.35;73.97
77333;BME280;66408;51.326;12.070;2023-01-10T08:28:14;100894.47;;;6.36;73.53
77333;BME280;66408;51.326;12.070;2023-01-10T08:30:41;100904.25;;;6.42;74.28
77333;BME280;66408;51.326;12.070;2023-01-10T08:33:09;100903.16;;;6.43;73.62
77333;BME280;66408;51.326;12.070;2023-01-10T08:35:41;100913.72;;;6.49;73.93
77333;BME280;66408;51.326;12.070;2023-01-10T08:38:09;100907.53;;;6.49;73.42
77333;BME280;66408;51.326;12.070;2023-01-10T08:40:35;100908.88;;;6.52;73.45
77333;BME280;66408;51.326;12.070;2023-01-10T08:43:08;100913.78;;;6.55;73.55
77333;BME280;66408;51.326;12.070;2023-01-10T08:45:36;100918.31;;;6.49;73.38
77333;BME280;66408;51.326;12.070;2023-01-10T08:48:04;100921.88;;;6.55;73.32
77333;BME280;66408;51.326;12.070;2023-01-10T08:50:31;100921.34;;;6.58;73.12
77333;BME280;66408;51.326;12.070;2023-01-10T08:52:58;100923.81;;;6.64;73.18
77333;BME280;66408;51.326;12.070;2023-01-10T08:55:26;100935.41;;;6.60;73.19
77333;BME280;66408;51.326;12.070;2023-01-10T08:57:53;100943.28;;;6.71;72.72
77333;BME280;66408;51.326;12.070;2023-01-10T09:00:20;100938.47;;;6.78;71.46
77333;BME280;66408;51.326;12.070;2023-01-10T09:02:47;100937.41;;;6.84;72.20
77333;BME280;66408;51.326;12.070;2023-01-10T09:05:14;100935.56;;;6.90;71.70
77333;BME280;66408;51.326;12.070;2023-01-10T09:07:57;100939.88;;;6.91;70.66
77333;BME280;66408;51.326;12.070;2023-01-10T09:10:24;100937.69;;;6.88;71.14
77333;BME280;66408;51.326;12.070;2023-01-10T09:12:50;100949.56;;;6.82;71.48
77333;BME280;66408;51.326;12.070;2023-01-10T09:15:24;100955.03;;;6.92;71.27
77333;BME280;66408;51.326;12.070;2023-01-10T09:18:03;100961.00;;;6.99;71.06
77333;BME280;66408;51.326;12.070;2023-01-10T09:20:33;100964.47;;;6.95;71.38
77333;BME280;66408;51.326;12.070;2023-01-10T09:23:04;100971.25;;;6.97;71.25
77333;BME280;66408;51.326;12.070;2023-01-10T09:25:32;100978.28;;;6.98;71.05
77333;BME280;66408;51.326;12.070;2023-01-10T09:28:00;100975.03;;;6.91;71.19
77333;BME280;66408;51.326;12.070;2023-01-10T09:30:28;100978.50;;;6.87;70.79
77333;BME280;66408;51.326;12.070;2023-01-10T09:32:56;100983.88;;;6.81;70.87
77333;BME280;66408;51.326;12.070;2023-01-10T09:35:24;100980.34;;;6.81;71.46
77333;BME280;66408;51.326;12.070;2023-01-10T09:37:55;100981.72;;;6.83;71.02
77333;BME280;66408;51.326;12.070;2023-01-10T09:45:57;100997.13;;;6.83;70.96
77333;BME280;66408;51.326;12.070;2023-01-10T09:48:37;100998.25;;;6.87;71.16
77333;BME280;66408;51.326;12.070;2023-01-10T09:51:39;101002.84;;;6.87;70.90
77333;BME280;66408;51.326;12.070;2023-01-10T09:54:17;101011.50;;;6.89;71.01
77333;BME280;66408;51.326;12.070;2023-01-10T09:56:46;101019.88;;;6.87;71.30
77333;BME280;66408;51.326;12.070;2023-01-10T09:59:19;101019.88;;;6.87;70.52
77333;BME280;66408;51.326;12.070;2023-01-10T10:01:47;101029.56;;;6.83;70.12
77333;BME280;66408;51.326;12.070;2023-01-10T10:04:24;101037.16;;;6.86;69.91
77333;BME280;66408;51.326;12.070;2023-01-10T10:06:53;101036.59;;;6.84;69.63
77333;BME280;66408;51.326;12.070;2023-01-10T10:09:24;101035.22;;;6.81;69.63
77333;BME280;66408;51.326;12.070;2023-01-10T10:12:09;101029.81;;;6.76;69.27
77333;BME280;66408;51.326;12.070;2023-01-10T10:17:40;101024.97;;;6.83;70.48
77333;BME280;66408;51.326;12.070;2023-01-10T10:23:14;101024.97;;;6.83;70.31
77333;BME280;66408;51.326;12.070;2023-01-10T10:34:52;101009.19;;;7.12;68.51
77333;BME280;66408;51.326;12.070;2023-01-10T10:37:49;101007.84;;;7.20;68.70
77333;BME280;66408;51.326;12.070;2023-01-10T10:40:20;101017.84;;;7.19;67.92
77333;BME280;66408;51.326;12.070;2023-01-10T10:42:51;101021.63;;;7.18;67.56
77333;BME280;66408;51.326;12.070;2023-01-10T10:45:37;101007.88;;;7.25;67.79
77333;BME280;66408;51.326;12.070;2023-01-10T10:48:23;100995.31;;;7.76;66.34
77333;BME280;66408;51.326;12.070;2023-01-10T10:50:58;100991.00;;;8.16;64.67
77333;BME280;66408;51.326;12.070;2023-01-10T10:53:25;100992.59;;;8.17;64.45
77333;BME280;66408;51.326;12.070;2023-01-10T10:55:52;100993.16;;;8.19;64.62
77333;BME280;66408;51.326;12.070;2023-01-10T10:58:19;100991.53;;;8.18;64.67
77333;BME280;66408;51.326;12.070;2023-01-10T11:00:45;100992.59;;;8.07;64.53
77333;BME280;66408;51.326;12.070;2023-01-10T11:03:28;100999.38;;;8.09;64.76
77333;BME280;66408;51.326;12.070;2023-01-10T11:05:58;101006.16;;;8.02;65.07
77333;BME280;66408;51.326;12.070;2023-01-10T11:08:27;101011.56;;;8.07;65.49
77333;BME280;66408;51.326;12.070;2023-01-10T11:10:57;101004.00;;;8.14;65.51
77333;BME280;66408;51.326;12.070;2023-01-10T11:16:01;101019.44;;;8.23;64.91
77333;BME280;66408;51.326;12.070;2023-01-10T11:18:30;101025.38;;;8.20;65.25
77333;BME280;66408;51.326;12.070;2023-01-10T11:20:57;101030.81;;;8.10;64.79
77333;BME280;66408;51.326;12.070;2023-01-10T11:26:20;101025.66;;;7.99;64.77
77333;BME280;66408;51.326;12.070;2023-01-10T11:28:51;101022.66;;;7.95;64.29
77333;BME280;66408;51.326;12.070;2023-01-10T11:31:27;101014.00;;;7.88;64.68
77333;BME280;66408;51.326;12.070;2023-01-10T11:33:55;101014.53;;;7.90;65.14
77333;BME280;66408;51.326;12.070;2023-01-10T11:36:22;101021.31;;;7.87;65.60
77333;BME280;66408;51.326;12.070;2023-01-10T11:39:03;101029.97;;;7.94;64.89
77333;BME280;66408;51.326;12.070;2023-01-10T11:41:29;101028.56;;;7.72;64.42
77333;BME280;66408;51.326;12.070;2023-01-10T11:44:15;101032.09;;;7.62;66.18
77333;BME280;66408;51.326;12.070;2023-01-10T11:46:43;101051.28;;;7.61;65.54
77333;BME280;66408;51.326;12.070;2023-01-10T11:49:12;101046.69;;;7.61;65.87
77333;BME280;66408;51.326;12.070;2023-01-10T11:51:50;101050.19;;;7.51;66.13
77333;BME280;66408;51.326;12.070;2023-01-10T11:54:22;101038.81;;;7.54;66.57
77333;BME280;66408;51.326;12.070;2023-01-10T11:57:03;101039.91;;;7.58;66.51
77333;BME280;66408;51.326;12.070;2023-01-10T11:59:32;101040.19;;;7.62;66.66
77333;BME280;66408;51.326;12.070;2023-01-10T12:02:20;101036.09;;;7.54;66.29
77333;BME280;66408;51.326;12.070;2023-01-10T12:04:49;101044.50;;;7.58;65.40
77333;BME280;66408;51.326;12.070;2023-01-10T12:07:17;101034.22;;;7.60;66.15
77333;BME280;66408;51.326;12.070;2023-01-10T12:10:01;101035.59;;;7.63;65.29
77333;BME280;66408;51.326;12.070;2023-01-10T12:12:30;101046.94;;;7.60;65.15
77333;BME280;66408;51.326;12.070;2023-01-10T12:14:59;101053.97;;;7.55;64.81
77333;BME280;66408;51.326;12.070;2023-01-10T12:17:30;101059.94;;;7.52;65.06
77333;BME280;66408;51.326;12.070;2023-01-10T12:19:59;101059.38;;;7.50;65.92
77333;BME280;66408;51.326;12.070;2023-01-10T12:22:32;101061.25;;;7.55;65.21
77333;BME280;66408;51.326;12.070;2023-01-10T12:25:03;101048.84;;;7.54;64.98
77333;BME280;66408;51.326;12.070;2023-01-10T12:27:31;101067.28;;;7.72;65.97
77333;BME280;66408;51.326;12.070;2023-01-10T12:32:36;101054.28;;;7.79;64.70
77333;BME280;66408;51.326;12.070;2023-01-10T12:35:17;101051.88;;;7.83;65.31
77333;BME280;66408;51.326;12.070;2023-01-10T12:37:47;101057.00;;;7.79;64.91
77333;BME280;66408;51.326;12.070;2023-01-10T12:43:26;101065.13;;;7.79;65.55
77333;BME280;66408;51.326;12.070;2023-01-10T12:46:34;101062.97;;;7.81;65.13
77333;BME280;66408;51.326;12.070;2023-01-10T12:49:32;101071.63;;;7.73;65.71
77333;BME280;66408;51.326;12.070;2023-01-10T12:52:05;101073.25;;;7.74;66.39
77333;BME280;66408;51.326;12.070;2023-01-10T12:54:35;101067.56;;;7.76;65.63
77333;BME280;66408;51.326;12.070;2023-01-10T12:57:11;101070.53;;;7.74;65.48
77333;BME280;66408;51.326;12.070;2023-01-10T12:59:43;101074.84;;;7.70;65.66
77333;BME280;66408;51.326;12.070;2023-01-10T13:02:16;101078.38;;;7.71;65.33
77333;BME280;66408;51.326;12.070;2023-01-10T13:04:50;101071.06;;;7.71;65.71
77333;BME280;66408;51.326;12.070;2023-01-10T13:07:19;101072.69;;;7.72;66.07
77333;BME280;66408;51.326;12.070;2023-01-10T13:09:48;101083.53;;;7.72;65.54
77333;BME280;66408;51.326;12.070;2023-01-10T13:12:27;101073.22;;;7.69;66.05
77333;BME280;66408;51.326;12.070;2023-01-10T13:17:55;101071.94;;;7.87;66.13
77333;BME280;66408;51.326;12.070;2023-01-10T13:20:27;101069.22;;;7.92;65.50
77333;BME280;66408;51.326;12.070;2023-01-10T13:22:59;101066.28;;;7.99;65.11
77333;BME280;66408;51.326;12.070;2023-01-10T13:25:27;101077.09;;;7.93;65.20
77333;BME280;66408;51.326;12.070;2023-01-10T13:28:15;101068.94;;;7.83;64.96
77333;BME280;66408;51.326;12.070;2023-01-10T13:30:43;101065.97;;;7.85;65.40
77333;BME280;66408;51.326;12.070;2023-01-10T13:33:20;101073.25;;;7.79;65.43
77333;BME280;66408;51.326;12.070;2023-01-10T13:35:48;101072.69;;;7.62;66.09
77333;BME280;66408;51.326;12.070;2023-01-10T13:38:26;101078.31;;;7.55;66.39
77333;BME280;66408;51.326;12.070;2023-01-10T13:41:00;101090.78;;;7.56;66.72
77333;BME280;66408;51.326;12.070;2023-01-10T13:43:59;101097.59;;;7.64;66.43
77333;BME280;66408;51.326;12.070;2023-01-10T13:51:26;101088.91;;;7.67;66.07
77333;BME280;66408;51.326;12.070;2023-01-10T13:53:56;101090.03;;;7.71;65.74
77333;BME280;66408;51.326;12.070;2023-01-10T13:56:33;101102.44;;;7.67;65.76
77333;BME280;66408;51.326;12.070;2023-01-10T13:59:01;101093.50;;;7.62;65.52
77333;BME280;66408;51.326;12.070;2023-01-10T14:01:49;101090.00;;;7.61;65.83
77333;BME280;66408;51.326;12.070;2023-01-10T14:04:43;101099.72;;;7.57;65.52
77333;BME280;66408;51.326;12.070;2023-01-10T14:07:20;101097.00;;;7.52;65.81
77333;BME280;66408;51.326;12.070;2023-01-10T14:09:48;101086.97;;;7.47;66.11
77333;BME280;66408;51.326;12.070;2023-01-10T14:12:24;101087.25;;;7.51;65.54
77333;BME280;66408;51.326;12.070;2023-01-10T14:14:55;101083.47;;;7.52;65.25
77333;BME280;66408;51.326;12.070;2023-01-10T14:17:26;101087.81;;;7.53;65.20
77333;BME280;66408;51.326;12.070;2023-01-10T14:20:12;101085.38;;;7.56;65.15